sensor_id;sensor_type;location;lat;lon;timestamp;P1;durP1;ratioP1;P2;durP2;ratioP2
76262;SDS011;65080;50.908;6.916;2023-06-22T00:00:37;4.90;;;4.30;;
76262;SDS011;65080;50.908;6.916;2023-06-22T00:03:08;4.83;;;4.17;;
76262;SDS011;65080;50.908;6.916;2023-06-22T00:05:37;5.67;;;3.90;;
76262;SDS011;65080;50.908;6.916;2023-06-22T00:08:05;4.53;;;3.90;;
76262;SDS011;65080;50.908;6.916;2023-06-22T00:10:34;6.40;;;4.30;;
76262;SDS011;65080;50.908;6.916;2023-06-22T00:13:02;5.30;;;4.20;;
76262;SDS011;65080;50.908;6.916;2023-06-22T00:15:31;5.27;;;4.50;;
76262;SDS011;65080;50.908;6.916;2023-06-22T00:18:00;7.23;;;4.50;;
76262;SDS011;65080;50.908;6.916;2023-06-22T00:20:29;4.93;;;4.07;;
76262;SDS011;65080;50.908;6.916;2023-06-22T00:22:58;6.57;;;4.47;;
76262;SDS011;65080;50.908;6.916;2023-06-22T00:25:27;4.40;;;3.80;;
76262;SDS011;65080;50.908;6.916;2023-06-22T00:27:55;6.10;;;4.60;;
76262;SDS011;65080;50.908;6.916;2023-06-22T00:30:23;5.53;;;4.10;;
76262;SDS011;65080;50.908;6.916;2023-06-22T00:32:52;5.37;;;4.00;;
76262;SDS011;65080;50.908;6.916;2023-06-22T00:35:22;4.27;;;3.87;;
76262;SDS011;65080;50.908;6.916;2023-06-22T00:37:55;5.20;;;4.20;;
76262;SDS011;65080;50.908;6.916;2023-06-22T00:40:28;5.10;;;3.93;;
76262;SDS011;65080;50.908;6.916;2023-06-22T00:42:57;4.50;;;3.80;;
76262;SDS011;65080;50.908;6.916;2023-06-22T00:45:25;5.43;;;4.23;;
76262;SDS011;65080;50.908;6.916;2023-06-22T00:47:55;6.10;;;4.40;;
76262;SDS011;65080;50.908;6.916;2023-06-22T00:50:26;4.77;;;4.27;;
76262;SDS011;65080;50.908;6.916;2023-06-22T00:53:01;3.87;;;3.50;;
76262;SDS011;65080;50.908;6.916;2023-06-22T00:55:35;4.53;;;3.83;;
76262;SDS011;65080;50.908;6.916;2023-06-22T00:58:05;6.10;;;4.73;;
76262;SDS011;65080;50.908;6.916;2023-06-22T01:00:34;4.67;;;4.23;;
76262;SDS011;65080;50.908;6.916;2023-06-22T01:03:02;6.33;;;4.03;;
76262;SDS011;65080;50.908;6.916;2023-06-22T01:05:37;4.77;;;4.13;;
76262;SDS011;65080;50.908;6.916;2023-06-22T01:08:09;4.80;;;4.30;;
76262;SDS011;65080;50.908;6.916;2023-06-22T01:10:45;4.90;;;4.20;;
76262;SDS011;65080;50.908;6.916;2023-06-22T01:13:20;10.83;;;4.80;;
76262;SDS011;65080;50.908;6.916;2023-06-22T01:15:57;4.37;;;3.73;;
76262;SDS011;65080;50.908;6.916;2023-06-22T01:18:29;5.17;;;4.43;;
76262;SDS011;65080;50.908;6.916;2023-06-22T01:21:01;5.37;;;4.30;;
76262;SDS011;65080;50.908;6.916;2023-06-22T01:23:38;4.43;;;4.03;;
76262;SDS011;65080;50.908;6.916;2023-06-22T01:26:19;4.83;;;4.20;;
76262;SDS011;65080;50.908;6.916;2023-06-22T01:28:55;6.40;;;4.23;;
76262;SDS011;65080;50.908;6.916;2023-06-22T01:31:26;5.63;;;3.93;;
76262;SDS011;65080;50.908;6.916;2023-06-22T01:33:57;5.17;;;4.47;;
76262;SDS011;65080;50.908;6.916;2023-06-22T01:36:28;5.20;;;4.40;;
76262;SDS011;65080;50.908;6.916;2023-06-22T01:38:57;7.80;;;4.53;;
76262;SDS011;65080;50.908;6.916;2023-06-22T01:41:27;4.70;;;4.20;;
76262;SDS011;65080;50.908;6.916;2023-06-22T01:43:59;6.53;;;4.53;;
76262;SDS011;65080;50.908;6.916;2023-06-22T01:46:28;5.00;;;3.90;;
76262;SDS011;65080;50.908;6.916;2023-06-22T01:48:57;4.13;;;3.50;;
76262;SDS011;65080;50.908;6.916;2023-06-22T01:51:25;4.30;;;3.77;;
76262;SDS011;65080;50.908;6.916;2023-06-22T01:53:53;5.57;;;3.90;;
76262;SDS011;65080;50.908;6.916;2023-06-22T01:56:22;6.90;;;4.07;;
76262;SDS011;65080;50.908;6.916;2023-06-22T01:58:52;6.20;;;4.93;;
76262;SDS011;65080;50.908;6.916;2023-06-22T02:01:30;4.77;;;4.17;;
76262;SDS011;65080;50.908;6.916;2023-06-22T02:04:04;4.77;;;3.97;;
76262;SDS011;65080;50.908;6.916;2023-06-22T02:06:49;4.10;;;3.70;;
76262;SDS011;65080;50.908;6.916;2023-06-22T02:09:22;4.63;;;3.97;;
76262;SDS011;65080;50.908;6.916;2023-06-22T02:11:53;4.13;;;3.73;;
76262;SDS011;65080;50.908;6.916;2023-06-22T02:14:24;5.43;;;4.20;;
76262;SDS011;65080;50.908;6.916;2023-06-22T02:16:54;10.70;;;4.90;;
76262;SDS011;65080;50.908;6.916;2023-06-22T02:19:26;4.30;;;3.90;;
76262;SDS011;65080;50.908;6.916;2023-06-22T02:21:59;4.83;;;3.80;;
76262;SDS011;65080;50.908;6.916;2023-06-22T02:24:27;4.60;;;4.00;;
76262;SDS011;65080;50.908;6.916;2023-06-22T02:26:57;4.50;;;3.80;;
76262;SDS011;65080;50.908;6.916;2023-06-22T02:29:26;4.10;;;3.70;;
76262;SDS011;65080;50.908;6.916;2023-06-22T02:31:55;4.10;;;3.70;;
76262;SDS011;65080;50.908;6.916;2023-06-22T02:34:24;5.97;;;4.20;;
76262;SDS011;65080;50.908;6.916;2023-06-22T02:36:52;5.10;;;4.20;;
76262;SDS011;65080;50.908;6.916;2023-06-22T02:39:21;5.10;;;4.00;;
76262;SDS011;65080;50.908;6.916;2023-06-22T02:41:51;4.33;;;3.93;;
76262;SDS011;65080;50.908;6.916;2023-06-22T02:44:20;4.47;;;4.03;;
76262;SDS011;65080;50.908;6.916;2023-06-22T02:46:49;5.50;;;4.23;;
76262;SDS011;65080;50.908;6.916;2023-06-22T02:49:18;4.23;;;3.83;;
76262;SDS011;65080;50.908;6.916;2023-06-22T02:51:47;4.60;;;3.80;;
76262;SDS011;65080;50.908;6.916;2023-06-22T02:54:15;5.10;;;4.10;;
76262;SDS011;65080;50.908;6.916;2023-06-22T02:56:44;6.77;;;4.37;;
76262;SDS011;65080;50.908;6.916;2023-06-22T02:59:12;6.20;;;4.30;;
76262;SDS011;65080;50.908;6.916;2023-06-22T03:01:40;4.37;;;3.97;;
76262;SDS011;65080;50.908;6.916;2023-06-22T03:04:09;7.33;;;4.50;;
76262;SDS011;65080;50.908;6.916;2023-06-22T03:06:38;5.63;;;4.00;;
76262;SDS011;65080;50.908;6.916;2023-06-22T03:09:07;5.27;;;3.70;;
76262;SDS011;65080;50.908;6.916;2023-06-22T03:11:35;5.27;;;4.00;;
76262;SDS011;65080;50.908;6.916;2023-06-22T03:14:04;5.00;;;4.40;;
76262;SDS011;65080;50.908;6.916;2023-06-22T03:16:32;3.80;;;3.40;;
76262;SDS011;65080;50.908;6.916;2023-06-22T03:19:00;5.90;;;4.10;;
76262;SDS011;65080;50.908;6.916;2023-06-22T03:21:29;4.93;;;4.40;;
76262;SDS011;65080;50.908;6.916;2023-06-22T03:23:59;5.60;;;4.03;;
76262;SDS011;65080;50.908;6.916;2023-06-22T03:26:28;5.20;;;4.13;;
76262;SDS011;65080;50.908;6.916;2023-06-22T03:28:56;5.10;;;3.70;;
76262;SDS011;65080;50.908;6.916;2023-06-22T03:31:24;8.73;;;4.30;;
76262;SDS011;65080;50.908;6.916;2023-06-22T03:33:53;6.13;;;4.20;;
76262;SDS011;65080;50.908;6.916;2023-06-22T03:36:21;5.10;;;4.40;;
76262;SDS011;65080;50.908;6.916;2023-06-22T03:38:50;5.03;;;4.30;;
76262;SDS011;65080;50.908;6.916;2023-06-22T03:41:20;4.90;;;3.80;;
76262;SDS011;65080;50.908;6.916;2023-06-22T03:43:48;3.90;;;3.50;;
76262;SDS011;65080;50.908;6.916;2023-06-22T03:46:16;5.27;;;3.70;;
76262;SDS011;65080;50.908;6.916;2023-06-22T03:48:46;5.07;;;3.90;;
76262;SDS011;65080;50.908;6.916;2023-06-22T03:51:14;6.00;;;4.00;;
76262;SDS011;65080;50.908;6.916;2023-06-22T03:53:42;6.23;;;4.07;;
76262;SDS011;65080;50.908;6.916;2023-06-22T03:56:11;3.80;;;3.30;;
76262;SDS011;65080;50.908;6.916;2023-06-22T03:58:40;4.00;;;3.60;;
76262;SDS011;65080;50.908;6.916;2023-06-22T04:01:11;7.63;;;5.37;;
76262;SDS011;65080;50.908;6.916;2023-06-22T04:03:40;5.20;;;4.20;;
76262;SDS011;65080;50.908;6.916;2023-06-22T04:06:09;7.17;;;4.07;;
76262;SDS011;65080;50.908;6.916;2023-06-22T04:08:37;6.20;;;4.20;;
76262;SDS011;65080;50.908;6.916;2023-06-22T04:11:05;8.83;;;4.60;;
76262;SDS011;65080;50.908;6.916;2023-06-22T04:13:33;5.33;;;3.67;;
76262;SDS011;65080;50.908;6.916;2023-06-22T04:16:03;6.73;;;3.93;;
76262;SDS011;65080;50.908;6.916;2023-06-22T04:18:31;5.13;;;3.60;;
76262;SDS011;65080;50.908;6.916;2023-06-22T04:20:59;4.50;;;4.10;;
76262;SDS011;65080;50.908;6.916;2023-06-22T04:23:28;6.30;;;4.07;;
76262;SDS011;65080;50.908;6.916;2023-06-22T04:25:56;4.63;;;3.73;;
76262;SDS011;65080;50.908;6.916;2023-06-22T04:28:24;4.90;;;4.23;;
76262;SDS011;65080;50.908;6.916;2023-06-22T04:30:54;7.07;;;4.60;;
76262;SDS011;65080;50.908;6.916;2023-06-22T04:33:26;11.40;;;5.20;;
76262;SDS011;65080;50.908;6.916;2023-06-22T04:35:55;8.23;;;4.90;;
76262;SDS011;65080;50.908;6.916;2023-06-22T04:38:24;4.80;;;4.20;;
76262;SDS011;65080;50.908;6.916;2023-06-22T04:40:52;5.97;;;4.67;;
76262;SDS011;65080;50.908;6.916;2023-06-22T04:43:21;7.57;;;4.90;;
76262;SDS011;65080;50.908;6.916;2023-06-22T04:45:49;5.07;;;4.40;;
76262;SDS011;65080;50.908;6.916;2023-06-22T04:48:19;5.90;;;4.00;;
76262;SDS011;65080;50.908;6.916;2023-06-22T04:50:48;20.67;;;10.10;;
76262;SDS011;65080;50.908;6.916;2023-06-22T04:53:17;9.83;;;5.80;;
76262;SDS011;65080;50.908;6.916;2023-06-22T04:55:45;12.80;;;4.70;;
76262;SDS011;65080;50.908;6.916;2023-06-22T04:58:15;7.53;;;5.30;;
76262;SDS011;65080;50.908;6.916;2023-06-22T05:00:46;7.50;;;4.83;;
76262;SDS011;65080;50.908;6.916;2023-06-22T05:03:17;5.93;;;5.17;;
76262;SDS011;65080;50.908;6.916;2023-06-22T05:05:46;6.23;;;4.80;;
76262;SDS011;65080;50.908;6.916;2023-06-22T05:08:16;6.73;;;5.83;;
76262;SDS011;65080;50.908;6.916;2023-06-22T05:10:44;9.30;;;6.70;;
76262;SDS011;65080;50.908;6.916;2023-06-22T05:13:30;5.60;;;5.00;;
76262;SDS011;65080;50.908;6.916;2023-06-22T05:15:59;7.23;;;4.87;;
76262;SDS011;65080;50.908;6.916;2023-06-22T05:18:29;8.43;;;4.83;;
76262;SDS011;65080;50.908;6.916;2023-06-22T05:21:00;8.20;;;5.17;;
76262;SDS011;65080;50.908;6.916;2023-06-22T05:23:28;5.70;;;4.73;;
76262;SDS011;65080;50.908;6.916;2023-06-22T05:25:56;7.27;;;5.20;;
76262;SDS011;65080;50.908;6.916;2023-06-22T05:28:25;8.60;;;5.90;;
76262;SDS011;65080;50.908;6.916;2023-06-22T05:30:53;6.00;;;5.40;;
76262;SDS011;65080;50.908;6.916;2023-06-22T05:33:22;7.93;;;6.13;;
76262;SDS011;65080;50.908;6.916;2023-06-22T05:35:50;10.70;;;6.97;;
76262;SDS011;65080;50.908;6.916;2023-06-22T05:38:19;8.93;;;6.00;;
76262;SDS011;65080;50.908;6.916;2023-06-22T05:40:48;7.60;;;6.27;;
76262;SDS011;65080;50.908;6.916;2023-06-22T05:43:16;9.13;;;6.73;;
76262;SDS011;65080;50.908;6.916;2023-06-22T05:45:44;11.80;;;6.90;;
76262;SDS011;65080;50.908;6.916;2023-06-22T05:48:12;7.87;;;6.77;;
76262;SDS011;65080;50.908;6.916;2023-06-22T05:50:41;7.97;;;6.93;;
76262;SDS011;65080;50.908;6.916;2023-06-22T05:53:09;8.27;;;6.60;;
76262;SDS011;65080;50.908;6.916;2023-06-22T05:55:39;9.87;;;6.43;;
76262;SDS011;65080;50.908;6.916;2023-06-22T05:58:08;7.77;;;6.97;;
76262;SDS011;65080;50.908;6.916;2023-06-22T06:00:37;11.53;;;7.73;;
76262;SDS011;65080;50.908;6.916;2023-06-22T06:03:05;8.17;;;6.90;;
76262;SDS011;65080;50.908;6.916;2023-06-22T06:05:34;9.03;;;8.10;;
76262;SDS011;65080;50.908;6.916;2023-06-22T06:08:04;8.30;;;7.30;;
76262;SDS011;65080;50.908;6.916;2023-06-22T06:10:33;8.63;;;7.30;;
76262;SDS011;65080;50.908;6.916;2023-06-22T06:13:04;11.10;;;8.00;;
76262;SDS011;65080;50.908;6.916;2023-06-22T06:15:32;8.90;;;8.00;;
76262;SDS011;65080;50.908;6.916;2023-06-22T06:18:01;8.67;;;7.77;;
76262;SDS011;65080;50.908;6.916;2023-06-22T06:20:32;9.57;;;7.50;;
76262;SDS011;65080;50.908;6.916;2023-06-22T06:23:00;8.93;;;7.30;;
76262;SDS011;65080;50.908;6.916;2023-06-22T06:25:29;11.17;;;8.40;;
76262;SDS011;65080;50.908;6.916;2023-06-22T06:27:57;9.07;;;7.77;;
76262;SDS011;65080;50.908;6.916;2023-06-22T06:30:27;9.03;;;8.13;;
76262;SDS011;65080;50.908;6.916;2023-06-22T06:32:56;13.70;;;8.17;;
76262;SDS011;65080;50.908;6.916;2023-06-22T06:35:24;7.50;;;6.70;;
76262;SDS011;65080;50.908;6.916;2023-06-22T06:37:53;9.50;;;7.20;;
76262;SDS011;65080;50.908;6.916;2023-06-22T06:40:21;7.70;;;7.00;;
76262;SDS011;65080;50.908;6.916;2023-06-22T06:42:49;7.90;;;7.20;;
76262;SDS011;65080;50.908;6.916;2023-06-22T06:45:18;12.73;;;8.00;;
76262;SDS011;65080;50.908;6.916;2023-06-22T06:47:50;7.97;;;6.40;;
76262;SDS011;65080;50.908;6.916;2023-06-22T06:50:20;8.70;;;7.40;;
76262;SDS011;65080;50.908;6.916;2023-06-22T06:52:48;7.73;;;6.90;;
76262;SDS011;65080;50.908;6.916;2023-06-22T06:55:17;10.00;;;7.00;;
76262;SDS011;65080;50.908;6.916;2023-06-22T06:57:46;12.77;;;6.77;;
76262;SDS011;65080;50.908;6.916;2023-06-22T07:00:16;9.77;;;7.13;;
76262;SDS011;65080;50.908;6.916;2023-06-22T07:02:45;7.63;;;6.87;;
76262;SDS011;65080;50.908;6.916;2023-06-22T07:05:17;7.50;;;6.53;;
76262;SDS011;65080;50.908;6.916;2023-06-22T07:07:45;7.70;;;6.77;;
76262;SDS011;65080;50.908;6.916;2023-06-22T07:10:13;8.17;;;6.60;;
76262;SDS011;65080;50.908;6.916;2023-06-22T07:12:42;8.23;;;7.23;;
76262;SDS011;65080;50.908;6.916;2023-06-22T07:15:11;8.03;;;7.23;;
76262;SDS011;65080;50.908;6.916;2023-06-22T07:17:39;10.57;;;7.60;;
76262;SDS011;65080;50.908;6.916;2023-06-22T07:20:08;10.03;;;7.20;;
76262;SDS011;65080;50.908;6.916;2023-06-22T07:22:40;7.93;;;7.13;;
76262;SDS011;65080;50.908;6.916;2023-06-22T07:25:11;7.67;;;6.67;;
76262;SDS011;65080;50.908;6.916;2023-06-22T07:27:45;9.67;;;7.07;;
76262;SDS011;65080;50.908;6.916;2023-06-22T07:30:14;7.13;;;6.47;;
76262;SDS011;65080;50.908;6.916;2023-06-22T07:32:43;10.10;;;7.23;;
76262;SDS011;65080;50.908;6.916;2023-06-22T07:35:11;10.17;;;7.27;;
76262;SDS011;65080;50.908;6.916;2023-06-22T07:37:40;8.07;;;7.23;;
76262;SDS011;65080;50.908;6.916;2023-06-22T07:40:09;8.10;;;7.30;;
76262;SDS011;65080;50.908;6.916;2023-06-22T07:42:38;8.03;;;7.23;;
76262;SDS011;65080;50.908;6.916;2023-06-22T07:45:06;7.57;;;6.70;;
76262;SDS011;65080;50.908;6.916;2023-06-22T07:47:35;9.63;;;6.33;;
76262;SDS011;65080;50.908;6.916;2023-06-22T07:50:04;9.50;;;7.03;;
76262;SDS011;65080;50.908;6.916;2023-06-22T07:52:33;7.27;;;6.57;;
76262;SDS011;65080;50.908;6.916;2023-06-22T07:55:03;8.17;;;6.70;;
76262;SDS011;65080;50.908;6.916;2023-06-22T07:57:31;10.90;;;7.80;;
76262;SDS011;65080;50.908;6.916;2023-06-22T08:00:02;7.83;;;7.00;;
76262;SDS011;65080;50.908;6.916;2023-06-22T08:02:38;7.67;;;6.90;;
76262;SDS011;65080;50.908;6.916;2023-06-22T08:05:07;11.57;;;7.90;;
76262;SDS011;65080;50.908;6.916;2023-06-22T08:07:57;12.17;;;8.00;;
76262;SDS011;65080;50.908;6.916;2023-06-22T08:10:27;8.20;;;7.40;;
76262;SDS011;65080;50.908;6.916;2023-06-22T08:12:55;8.23;;;7.23;;
76262;SDS011;65080;50.908;6.916;2023-06-22T08:15:23;10.03;;;6.90;;
76262;SDS011;65080;50.908;6.916;2023-06-22T08:17:54;10.03;;;7.17;;
76262;SDS011;65080;50.908;6.916;2023-06-22T08:20:22;8.10;;;6.90;;
76262;SDS011;65080;50.908;6.916;2023-06-22T08:22:51;7.43;;;6.53;;
76262;SDS011;65080;50.908;6.916;2023-06-22T08:25:20;7.50;;;6.80;;
76262;SDS011;65080;50.908;6.916;2023-06-22T08:27:50;7.63;;;6.60;;
76262;SDS011;65080;50.908;6.916;2023-06-22T08:30:19;7.90;;;7.10;;
76262;SDS011;65080;50.908;6.916;2023-06-22T08:32:47;6.77;;;6.13;;
76262;SDS011;65080;50.908;6.916;2023-06-22T08:35:15;9.20;;;7.07;;
76262;SDS011;65080;50.908;6.916;2023-06-22T08:37:44;11.83;;;6.77;;
76262;SDS011;65080;50.908;6.916;2023-06-22T08:40:17;8.00;;;6.60;;
76262;SDS011;65080;50.908;6.916;2023-06-22T08:42:46;7.40;;;6.43;;
76262;SDS011;65080;50.908;6.916;2023-06-22T08:45:16;7.67;;;6.87;;
76262;SDS011;65080;50.908;6.916;2023-06-22T08:47:45;8.60;;;6.60;;
76262;SDS011;65080;50.908;6.916;2023-06-22T08:50:13;8.47;;;7.30;;
76262;SDS011;65080;50.908;6.916;2023-06-22T08:52:42;8.10;;;7.30;;
76262;SDS011;65080;50.908;6.916;2023-06-22T08:55:12;7.33;;;6.10;;
76262;SDS011;65080;50.908;6.916;2023-06-22T08:57:41;8.13;;;7.30;;
76262;SDS011;65080;50.908;6.916;2023-06-22T09:00:10;7.27;;;6.57;;
76262;SDS011;65080;50.908;6.916;2023-06-22T09:02:48;9.60;;;6.97;;
76262;SDS011;65080;50.908;6.916;2023-06-22T09:05:17;12.57;;;7.10;;
76262;SDS011;65080;50.908;6.916;2023-06-22T09:07:45;10.13;;;7.40;;
76262;SDS011;65080;50.908;6.916;2023-06-22T09:10:13;7.90;;;7.10;;
76262;SDS011;65080;50.908;6.916;2023-06-22T09:12:42;7.77;;;6.40;;
76262;SDS011;65080;50.908;6.916;2023-06-22T09:15:10;10.23;;;6.00;;
76262;SDS011;65080;50.908;6.916;2023-06-22T09:17:43;8.70;;;6.60;;
76262;SDS011;65080;50.908;6.916;2023-06-22T09:20:14;7.33;;;6.07;;
76262;SDS011;65080;50.908;6.916;2023-06-22T09:22:43;8.40;;;6.80;;
76262;SDS011;65080;50.908;6.916;2023-06-22T09:25:12;9.67;;;6.63;;
76262;SDS011;65080;50.908;6.916;2023-06-22T09:27:40;8.63;;;6.77;;
76262;SDS011;65080;50.908;6.916;2023-06-22T09:30:08;9.23;;;6.90;;
76262;SDS011;65080;50.908;6.916;2023-06-22T09:32:37;8.13;;;6.10;;
76262;SDS011;65080;50.908;6.916;2023-06-22T09:35:06;15.03;;;6.60;;
76262;SDS011;65080;50.908;6.916;2023-06-22T09:37:38;6.70;;;6.00;;
76262;SDS011;65080;50.908;6.916;2023-06-22T09:40:08;8.60;;;6.23;;
76262;SDS011;65080;50.908;6.916;2023-06-22T09:42:39;10.57;;;6.30;;
76262;SDS011;65080;50.908;6.916;2023-06-22T09:45:09;8.90;;;6.47;;
76262;SDS011;65080;50.908;6.916;2023-06-22T09:47:37;7.47;;;6.33;;
76262;SDS011;65080;50.908;6.916;2023-06-22T09:50:06;7.40;;;6.27;;
76262;SDS011;65080;50.908;6.916;2023-06-22T09:52:35;6.77;;;6.07;;
76262;SDS011;65080;50.908;6.916;2023-06-22T09:55:08;6.13;;;5.57;;
76262;SDS011;65080;50.908;6.916;2023-06-22T09:57:36;14.80;;;6.40;;
76262;SDS011;65080;50.908;6.916;2023-06-22T10:00:05;10.87;;;6.50;;
76262;SDS011;65080;50.908;6.916;2023-06-22T10:02:39;8.00;;;6.27;;
76262;SDS011;65080;50.908;6.916;2023-06-22T10:05:09;7.80;;;6.60;;
76262;SDS011;65080;50.908;6.916;2023-06-22T10:07:38;7.27;;;6.57;;
76262;SDS011;65080;50.908;6.916;2023-06-22T10:10:11;6.93;;;6.17;;
76262;SDS011;65080;50.908;6.916;2023-06-22T10:12:41;8.53;;;6.43;;
76262;SDS011;65080;50.908;6.916;2023-06-22T10:15:10;6.93;;;6.23;;
76262;SDS011;65080;50.908;6.916;2023-06-22T10:17:39;8.43;;;6.30;;
76262;SDS011;65080;50.908;6.916;2023-06-22T10:20:08;6.77;;;6.07;;
76262;SDS011;65080;50.908;6.916;2023-06-22T10:22:39;9.00;;;7.37;;
76262;SDS011;65080;50.908;6.916;2023-06-22T10:25:07;7.80;;;6.20;;
76262;SDS011;65080;50.908;6.916;2023-06-22T10:27:38;8.33;;;7.20;;
76262;SDS011;65080;50.908;6.916;2023-06-22T10:30:08;8.77;;;7.13;;
76262;SDS011;65080;50.908;6.916;2023-06-22T10:32:40;8.70;;;7.57;;
76262;SDS011;65080;50.908;6.916;2023-06-22T10:35:09;8.93;;;8.03;;
76262;SDS011;65080;50.908;6.916;2023-06-22T10:37:40;9.10;;;8.30;;
76262;SDS011;65080;50.908;6.916;2023-06-22T10:40:10;14.90;;;9.73;;
76262;SDS011;65080;50.908;6.916;2023-06-22T10:42:41;11.70;;;8.57;;
76262;SDS011;65080;50.908;6.916;2023-06-22T10:45:09;11.57;;;9.00;;
76262;SDS011;65080;50.908;6.916;2023-06-22T10:47:38;15.83;;;9.23;;
76262;SDS011;65080;50.908;6.916;2023-06-22T10:50:09;12.80;;;9.87;;
76262;SDS011;65080;50.908;6.916;2023-06-22T10:52:37;16.20;;;9.63;;
76262;SDS011;65080;50.908;6.916;2023-06-22T10:55:06;12.10;;;9.60;;
76262;SDS011;65080;50.908;6.916;2023-06-22T10:57:35;14.10;;;11.73;;
76262;SDS011;65080;50.908;6.916;2023-06-22T11:00:07;14.33;;;11.30;;
76262;SDS011;65080;50.908;6.916;2023-06-22T11:02:37;17.70;;;12.50;;
76262;SDS011;65080;50.908;6.916;2023-06-22T11:05:06;13.77;;;12.27;;
76262;SDS011;65080;50.908;6.916;2023-06-22T11:07:36;18.67;;;12.80;;
76262;SDS011;65080;50.908;6.916;2023-06-22T11:10:10;18.20;;;13.03;;
76262;SDS011;65080;50.908;6.916;2023-06-22T11:12:38;18.93;;;13.50;;
76262;SDS011;65080;50.908;6.916;2023-06-22T11:15:08;21.83;;;13.27;;
76262;SDS011;65080;50.908;6.916;2023-06-22T11:17:37;20.60;;;12.93;;
76262;SDS011;65080;50.908;6.916;2023-06-22T11:20:06;14.47;;;12.40;;
76262;SDS011;65080;50.908;6.916;2023-06-22T11:22:38;15.13;;;12.60;;
76262;SDS011;65080;50.908;6.916;2023-06-22T11:25:07;18.00;;;13.60;;
76262;SDS011;65080;50.908;6.916;2023-06-22T11:27:37;17.17;;;13.30;;
76262;SDS011;65080;50.908;6.916;2023-06-22T11:30:06;18.67;;;13.73;;
76262;SDS011;65080;50.908;6.916;2023-06-22T11:32:37;15.07;;;13.50;;
76262;SDS011;65080;50.908;6.916;2023-06-22T11:35:05;16.40;;;14.23;;
76262;SDS011;65080;50.908;6.916;2023-06-22T11:37:34;14.90;;;13.10;;
76262;SDS011;65080;50.908;6.916;2023-06-22T11:40:02;16.90;;;15.20;;
76262;SDS011;65080;50.908;6.916;2023-06-22T11:42:34;15.30;;;13.80;;
76262;SDS011;65080;50.908;6.916;2023-06-22T11:45:04;16.47;;;14.87;;
76262;SDS011;65080;50.908;6.916;2023-06-22T11:47:35;14.53;;;12.70;;
76262;SDS011;65080;50.908;6.916;2023-06-22T11:50:04;15.20;;;13.47;;
76262;SDS011;65080;50.908;6.916;2023-06-22T11:52:34;17.43;;;14.60;;
76262;SDS011;65080;50.908;6.916;2023-06-22T11:55:03;16.30;;;14.53;;
76262;SDS011;65080;50.908;6.916;2023-06-22T11:57:33;16.10;;;14.40;;
76262;SDS011;65080;50.908;6.916;2023-06-22T12:00:02;14.30;;;11.93;;
76262;SDS011;65080;50.908;6.916;2023-06-22T12:02:41;13.70;;;12.30;;
76262;SDS011;65080;50.908;6.916;2023-06-22T12:05:10;14.80;;;12.80;;
76262;SDS011;65080;50.908;6.916;2023-06-22T12:07:42;16.80;;;14.17;;
76262;SDS011;65080;50.908;6.916;2023-06-22T12:10:10;15.07;;;13.60;;
76262;SDS011;65080;50.908;6.916;2023-06-22T12:12:39;15.80;;;13.43;;
76262;SDS011;65080;50.908;6.916;2023-06-22T12:15:08;16.10;;;13.57;;
76262;SDS011;65080;50.908;6.916;2023-06-22T12:17:37;17.60;;;14.77;;
76262;SDS011;65080;50.908;6.916;2023-06-22T12:20:08;15.77;;;14.17;;
76262;SDS011;65080;50.908;6.916;2023-06-22T12:22:37;16.53;;;13.87;;
76262;SDS011;65080;50.908;6.916;2023-06-22T12:25:05;14.73;;;12.47;;
76262;SDS011;65080;50.908;6.916;2023-06-22T12:27:34;13.20;;;11.97;;
76262;SDS011;65080;50.908;6.916;2023-06-22T12:30:03;13.40;;;11.83;;
76262;SDS011;65080;50.908;6.916;2023-06-22T12:32:32;14.60;;;12.57;;
76262;SDS011;65080;50.908;6.916;2023-06-22T12:35:00;14.47;;;11.90;;
76262;SDS011;65080;50.908;6.916;2023-06-22T12:37:30;13.43;;;12.00;;
76262;SDS011;65080;50.908;6.916;2023-06-22T12:40:00;15.23;;;13.20;;
76262;SDS011;65080;50.908;6.916;2023-06-22T12:42:30;17.03;;;13.30;;
76262;SDS011;65080;50.908;6.916;2023-06-22T12:44:58;15.10;;;11.77;;
76262;SDS011;65080;50.908;6.916;2023-06-22T12:47:26;13.40;;;12.10;;
76262;SDS011;65080;50.908;6.916;2023-06-22T12:49:55;13.90;;;12.20;;
76262;SDS011;65080;50.908;6.916;2023-06-22T12:52:23;15.57;;;12.10;;
76262;SDS011;65080;50.908;6.916;2023-06-22T12:54:53;14.00;;;11.60;;
76262;SDS011;65080;50.908;6.916;2023-06-22T12:57:22;13.23;;;8.93;;
76262;SDS011;65080;50.908;6.916;2023-06-22T12:59:50;10.13;;;9.10;;
76262;SDS011;65080;50.908;6.916;2023-06-22T13:02:19;13.17;;;11.10;;
76262;SDS011;65080;50.908;6.916;2023-06-22T13:04:47;9.97;;;8.97;;
76262;SDS011;65080;50.908;6.916;2023-06-22T13:07:15;10.70;;;9.60;;
76262;SDS011;65080;50.908;6.916;2023-06-22T13:09:49;10.63;;;9.63;;
76262;SDS011;65080;50.908;6.916;2023-06-22T13:12:20;12.50;;;10.13;;
76262;SDS011;65080;50.908;6.916;2023-06-22T13:14:49;10.03;;;9.13;;
76262;SDS011;65080;50.908;6.916;2023-06-22T13:17:17;10.20;;;8.93;;
76262;SDS011;65080;50.908;6.916;2023-06-22T13:19:46;11.40;;;10.30;;
76262;SDS011;65080;50.908;6.916;2023-06-22T13:22:28;9.90;;;8.80;;
76262;SDS011;65080;50.908;6.916;2023-06-22T13:24:58;11.70;;;9.83;;
76262;SDS011;65080;50.908;6.916;2023-06-22T13:27:29;10.80;;;9.70;;
76262;SDS011;65080;50.908;6.916;2023-06-22T13:29:57;9.30;;;8.40;;
76262;SDS011;65080;50.908;6.916;2023-06-22T13:32:25;10.37;;;9.40;;
76262;SDS011;65080;50.908;6.916;2023-06-22T13:34:53;10.37;;;9.40;;
76262;SDS011;65080;50.908;6.916;2023-06-22T13:37:22;11.00;;;8.23;;
76262;SDS011;65080;50.908;6.916;2023-06-22T13:39:50;9.80;;;8.83;;
76262;SDS011;65080;50.908;6.916;2023-06-22T13:42:18;9.00;;;8.10;;
76262;SDS011;65080;50.908;6.916;2023-06-22T13:44:48;8.90;;;8.00;;
76262;SDS011;65080;50.908;6.916;2023-06-22T13:47:16;8.93;;;7.50;;
76262;SDS011;65080;50.908;6.916;2023-06-22T13:49:44;7.53;;;6.73;;
76262;SDS011;65080;50.908;6.916;2023-06-22T13:52:12;7.97;;;6.60;;
76262;SDS011;65080;50.908;6.916;2023-06-22T13:54:41;9.57;;;6.90;;
76262;SDS011;65080;50.908;6.916;2023-06-22T13:57:09;7.70;;;6.43;;
76262;SDS011;65080;50.908;6.916;2023-06-22T13:59:37;7.30;;;6.60;;
76262;SDS011;65080;50.908;6.916;2023-06-22T14:02:07;6.50;;;5.90;;
76262;SDS011;65080;50.908;6.916;2023-06-22T14:04:35;6.10;;;5.60;;
76262;SDS011;65080;50.908;6.916;2023-06-22T14:07:04;5.47;;;4.97;;
76262;SDS011;65080;50.908;6.916;2023-06-22T14:09:32;6.40;;;5.80;;
76262;SDS011;65080;50.908;6.916;2023-06-22T14:12:02;6.10;;;5.47;;
76262;SDS011;65080;50.908;6.916;2023-06-22T14:14:32;5.90;;;5.30;;
76262;SDS011;65080;50.908;6.916;2023-06-22T14:17:00;4.90;;;4.43;;
76262;SDS011;65080;50.908;6.916;2023-06-22T14:19:30;4.57;;;4.17;;
76262;SDS011;65080;50.908;6.916;2023-06-22T14:21:58;5.60;;;4.40;;
76262;SDS011;65080;50.908;6.916;2023-06-22T14:24:27;5.33;;;4.83;;
76262;SDS011;65080;50.908;6.916;2023-06-22T14:26:56;4.63;;;4.23;;
76262;SDS011;65080;50.908;6.916;2023-06-22T14:29:25;4.60;;;3.80;;
76262;SDS011;65080;50.908;6.916;2023-06-22T14:31:54;4.37;;;3.87;;
76262;SDS011;65080;50.908;6.916;2023-06-22T14:34:22;4.17;;;3.87;;
76262;SDS011;65080;50.908;6.916;2023-06-22T14:36:54;4.67;;;4.20;;
76262;SDS011;65080;50.908;6.916;2023-06-22T14:39:22;5.00;;;4.50;;
76262;SDS011;65080;50.908;6.916;2023-06-22T14:41:50;7.30;;;4.60;;
76262;SDS011;65080;50.908;6.916;2023-06-22T14:44:18;4.53;;;4.10;;
76262;SDS011;65080;50.908;6.916;2023-06-22T14:46:47;6.23;;;5.10;;
76262;SDS011;65080;50.908;6.916;2023-06-22T14:49:15;5.93;;;5.27;;
76262;SDS011;65080;50.908;6.916;2023-06-22T14:51:43;5.80;;;5.30;;
76262;SDS011;65080;50.908;6.916;2023-06-22T14:54:13;5.27;;;4.77;;
76262;SDS011;65080;50.908;6.916;2023-06-22T14:56:41;6.03;;;5.50;;